Time;durP1;ratioP1;P1;durP2;ratioP2;P2;SDS_P1;SDS_P2;PMS_P1;PMS_P2;Temp;Humidity;BMP_temperature;BMP_pressure;BME280_temperature;BME280_humidity;BME280_pressure;Samples;Min_cycle;Max_cycle;Signal;HPM_P1;HPM_P2
2021/08/29 00:01:50;;;;;;;22.43;12.53;;;;;;;17.37;100.00;94110.84;10332333;28;20453;-73
2021/08/29 00:06:50;;;;;;;20.40;12.48;;;;;;;17.38;100.00;94088.00;10332000;28;20173;-74
2021/08/29 00:11:50;;;;;;;19.30;12.70;;;;;;;17.35;100.00;94085.94;10331903;28;20559;-74
2021/08/29 00:16:51;;;;;;;23.87;12.93;;;;;;;17.22;100.00;94076.94;10331351;28;20372;-73
2021/08/29 00:21:51;;;;;;;21.80;13.38;;;;;;;17.25;100.00;94085.22;10329625;28;20026;-74
2021/08/29 00:26:52;;;;;;;22.03;12.70;;;;;;;17.32;100.00;94078.47;10330069;28;20069;-74
2021/08/29 00:31:52;;;;;;;20.70;12.02;;;;;;;17.40;100.00;94075.66;10331018;28;20038;-74
2021/08/29 00:36:52;;;;;;;22.63;13.80;;;;;;;17.49;100.00;94074.81;10330855;28;20089;-73
2021/08/29 00:41:53;;;;;;;18.43;12.13;;;;;;;17.52;100.00;94082.28;10330833;28;20026;-74
2021/08/29 00:46:53;;;;;;;18.47;11.97;;;;;;;17.59;100.00;94074.38;10330464;28;20034;-74
2021/08/29 00:51:58;;;;;;;19.53;11.43;;;;;;;17.57;100.00;94074.72;10330240;28;20022;-73
2021/08/29 00:57:00;;;;;;;25.77;13.43;;;;;;;17.41;100.00;94074.56;10330331;28;20119;-74
2021/08/29 01:02:12;;;;;;;24.52;12.80;;;;;;;17.22;100.00;94096.75;10329949;28;20141;-75
2021/08/29 01:07:21;;;;;;;23.00;14.35;;;;;;;17.04;100.00;94098.78;10312552;28;20054;-74
2021/08/29 01:12:24;;;;;;;29.98;15.60;;;;;;;17.05;100.00;94094.94;10329779;28;20473;-73
2021/08/29 01:17:28;;;;;;;27.52;14.02;;;;;;;17.03;100.00;94090.97;10329455;28;20034;-73
2021/08/29 01:22:31;;;;;;;27.98;14.52;;;;;;;17.18;100.00;94076.00;10329342;28;20378;-73
2021/08/29 01:27:44;;;;;;;23.30;13.52;;;;;;;17.16;100.00;94078.25;10328803;28;20069;-74
2021/08/29 01:32:45;;;;;;;29.40;17.73;;;;;;;17.09;100.00;94081.50;10311168;28;20030;-74
2021/08/29 01:37:46;;;;;;;31.83;18.08;;;;;;;16.87;100.00;94098.84;10327843;28;20026;-74
2021/08/29 01:42:47;;;;;;;26.77;16.42;;;;;;;16.75;100.00;94122.06;10327767;28;20027;-73
2021/08/29 01:47:47;;;;;;;37.67;17.67;;;;;;;16.77;100.00;94127.16;10327948;28;20099;-74
2021/08/29 01:52:48;;;;;;;44.83;23.30;;;;;;;16.76;100.00;94125.59;10310306;28;20379;-74
2021/08/29 01:57:48;;;;;;;42.50;19.80;;;;;;;16.94;100.00;94141.78;10327858;28;20474;-73
2021/08/29 02:02:49;;;;;;;34.93;18.27;;;;;;;17.05;100.00;94134.84;10327756;28;20277;-73
2021/08/29 02:07:56;;;;;;;38.50;20.10;;;;;;;17.04;100.00;94136.78;10327390;28;20050;-74
2021/08/29 02:13:05;;;;;;;34.60;19.20;;;;;;;17.01;100.00;94117.63;10326625;28;20912;-74
2021/08/29 02:18:11;;;;;;;38.45;19.27;;;;;;;17.07;100.00;94125.25;10327134;28;20065;-74
2021/08/29 02:23:14;;;;;;;31.67;19.23;;;;;;;17.17;100.00;94110.50;10327241;28;20031;-74
2021/08/29 02:28:15;;;;;;;36.30;20.30;;;;;;;17.13;100.00;94119.66;10326987;28;20030;-74
2021/08/29 02:33:16;;;;;;;33.38;19.25;;;;;;;17.10;100.00;94121.09;10326747;28;20022;-74
2021/08/29 02:38:18;;;;;;;40.58;20.58;;;;;;;17.28;100.00;94113.63;10326513;28;20056;-73
2021/08/29 02:43:19;;;;;;;40.95;20.70;;;;;;;17.09;100.00;94122.22;10326567;28;20109;-74
2021/08/29 02:48:22;;;;;;;37.88;20.75;;;;;;;17.19;100.00;94124.56;10326638;28;20026;-73
2021/08/29 02:53:23;;;;;;;37.25;19.90;;;;;;;17.05;100.00;94126.72;10326128;28;20363;-74
2021/08/29 02:58:24;;;;;;;36.70;19.35;;;;;;;17.02;100.00;94130.09;10325181;28;20022;-73
2021/08/29 03:03:25;;;;;;;41.78;21.20;;;;;;;16.95;100.00;94129.81;10325764;28;20057;-73
2021/08/29 03:08:25;;;;;;;36.72;18.27;;;;;;;16.87;100.00;94140.38;10325241;28;20134;-74
2021/08/29 03:13:27;;;;;;;37.22;17.70;;;;;;;16.87;100.00;94156.66;10326020;28;20031;-74
2021/08/29 03:18:30;;;;;;;36.92;20.08;;;;;;;16.82;100.00;94162.25;10325922;28;20049;-73
2021/08/29 03:23:30;;;;;;;56.47;20.92;;;;;;;16.89;100.00;94168.00;10329068;28;20117;-74
2021/08/29 03:28:31;;;;;;;37.95;16.67;;;;;;;16.80;100.00;94137.38;10333360;28;20032;-73
2021/08/29 03:33:34;;;;;;;19.20;7.78;;;;;;;16.53;100.00;94128.53;10333193;28;20026;-73
2021/08/29 03:38:36;;;;;;;13.18;8.13;;;;;;;16.55;100.00;94115.47;10333130;28;20030;-73
2021/08/29 03:43:37;;;;;;;11.43;7.50;;;;;;;16.57;100.00;94107.78;10332666;28;20022;-73
2021/08/29 03:48:37;;;;;;;14.55;8.32;;;;;;;16.44;100.00;94105.28;10332639;28;20763;-73
2021/08/29 03:53:38;;;;;;;18.13;10.97;;;;;;;16.23;100.00;94109.53;10332487;28;20030;-73
2021/08/29 03:58:40;;;;;;;17.35;8.75;;;;;;;16.44;100.00;94143.25;10332493;28;20114;-73
2021/08/29 04:03:40;;;;;;;20.67;11.02;;;;;;;16.61;100.00;94167.63;10332425;28;20891;-73
2021/08/29 04:08:45;;;;;;;31.33;12.98;;;;;;;16.64;100.00;94172.38;10330952;28;20053;-73
2021/08/29 04:13:45;;;;;;;29.17;13.65;;;;;;;16.51;100.00;94176.91;10330463;28;20035;-74
2021/08/29 04:18:47;;;;;;;18.90;9.32;;;;;;;16.52;100.00;94158.69;10330101;28;20027;-73
2021/08/29 04:23:48;;;;;;;16.55;7.32;;;;;;;16.56;100.00;94176.75;10313450;28;20025;-73
2021/08/29 04:28:49;;;;;;;17.85;7.60;;;;;;;16.50;100.00;94188.09;10329480;28;20034;-74
2021/08/29 04:33:51;;;;;;;17.83;7.80;;;;;;;16.54;100.00;94184.38;10329900;28;20494;-73
2021/08/29 04:38:51;;;;;;;14.27;9.75;;;;;;;16.37;100.00;94195.31;10329661;28;20530;-73
2021/08/29 04:43:52;;;;;;;19.03;10.97;;;;;;;16.26;100.00;94202.19;10330661;28;20026;-73
2021/08/29 04:48:52;;;;;;;18.33;11.32;;;;;;;16.26;100.00;94218.47;10330434;28;20037;-73
2021/08/29 04:53:52;;;;;;;19.03;10.33;;;;;;;15.96;100.00;94196.63;10330035;28;20034;-73
2021/08/29 04:58:53;;;;;;;20.40;11.37;;;;;;;15.96;100.00;94166.81;10330109;28;20030;-72
2021/08/29 05:03:53;;;;;;;20.37;12.70;;;;;;;15.94;100.00;94166.38;10329522;28;20022;-73
2021/08/29 05:08:54;;;;;;;32.15;21.45;;;;;;;15.84;100.00;94164.78;10329613;28;20305;-73
2021/08/29 05:13:54;;;;;;;26.05;15.15;;;;;;;15.76;100.00;94158.22;10329269;28;20033;-73
2021/08/29 05:18:55;;;;;;;32.50;19.23;;;;;;;15.83;100.00;94152.34;10329150;28;20845;-73
2021/08/29 05:23:55;;;;;;;62.23;41.83;;;;;;;15.63;100.00;94146.44;10328654;28;20022;-73
2021/08/29 05:28:56;;;;;;;42.87;25.10;;;;;;;15.46;100.00;94168.09;10328773;28;20030;-74
2021/08/29 05:33:56;;;;;;;34.05;18.67;;;;;;;15.44;100.00;94171.13;10328481;28;20031;-73
2021/08/29 05:38:56;;;;;;;30.15;18.38;;;;;;;15.37;100.00;94168.09;10310369;28;20030;-73
2021/08/29 05:43:57;;;;;;;49.83;28.90;;;;;;;15.35;100.00;94178.44;10327946;28;20031;-73
2021/08/29 05:48:57;;;;;;;33.57;19.53;;;;;;;15.30;100.00;94178.59;10328008;28;20033;-73
2021/08/29 05:53:58;;;;;;;32.85;18.83;;;;;;;15.34;100.00;94171.44;10310436;28;20112;-74
2021/08/29 05:58:58;;;;;;;33.70;19.60;;;;;;;15.52;100.00;94175.75;10327811;28;20556;-74
2021/08/29 06:03:58;;;;;;;30.93;19.03;;;;;;;15.64;100.00;94172.41;10310218;28;20033;-73
2021/08/29 06:08:59;;;;;;;29.37;17.67;;;;;;;15.80;100.00;94164.63;10327417;28;20138;-74
2021/08/29 06:14:00;;;;;;;36.47;20.42;;;;;;;15.62;100.00;94157.59;10327177;28;20026;-73
2021/08/29 06:19:00;;;;;;;33.53;18.40;;;;;;;15.70;100.00;94151.38;10327301;28;20026;-73
2021/08/29 06:24:00;;;;;;;33.10;19.17;;;;;;;15.59;100.00;94150.09;10326913;28;20125;-73
2021/08/29 06:29:01;;;;;;;37.03;20.80;;;;;;;15.73;100.00;94150.72;10326802;28;20722;-73
2021/08/29 06:34:01;;;;;;;33.15;20.00;;;;;;;15.80;100.00;94161.91;10326787;28;20048;-74
2021/08/29 06:39:02;;;;;;;44.00;19.50;;;;;;;15.89;100.00;94149.16;10326406;28;20108;-74
2021/08/29 06:44:02;;;;;;;33.85;18.33;;;;;;;16.03;100.00;94159.81;10326406;28;20041;-73
2021/08/29 06:49:03;;;;;;;32.78;19.45;;;;;;;16.00;100.00;94179.41;10326233;28;20026;-74
2021/08/29 06:54:03;;;;;;;38.43;18.50;;;;;;;16.01;100.00;94182.94;10326265;28;20019;-74
2021/08/29 06:59:03;;;;;;;35.43;17.80;;;;;;;16.00;100.00;94176.69;10332638;28;20474;-74
2021/08/29 07:04:04;;;;;;;49.63;20.43;;;;;;;15.94;100.00;94139.25;10334433;28;20018;-73
2021/08/29 07:09:04;;;;;;;61.30;21.87;;;;;;;15.92;100.00;94127.94;10334329;28;20506;-73
2021/08/29 07:14:05;;;;;;;37.13;19.88;;;;;;;15.51;100.00;94171.44;10333790;28;20297;-74
2021/08/29 07:19:05;;;;;;;47.38;22.73;;;;;;;15.45;100.00;94185.47;10333495;28;20023;-74
2021/08/29 07:24:06;;;;;;;38.80;20.38;;;;;;;15.47;100.00;94181.31;10333682;28;20026;-73
2021/08/29 07:29:06;;;;;;;46.47;22.47;;;;;;;15.40;100.00;94197.22;10333442;28;20026;-73
2021/08/29 07:34:07;;;;;;;44.83;23.30;;;;;;;15.37;100.00;94208.69;10332932;28;20285;-73
2021/08/29 07:39:07;;;;;;;53.17;23.90;;;;;;;15.55;100.00;94196.75;10333237;28;20273;-73
2021/08/29 07:44:07;;;;;;;51.87;24.60;;;;;;;15.67;100.00;94189.91;10315478;28;20819;-74
2021/08/29 07:49:08;;;;;;;53.30;24.57;;;;;;;15.67;100.00;94189.91;10332473;28;20455;-73
2021/08/29 07:54:08;;;;;;;44.50;23.67;;;;;;;15.45;100.00;94191.66;10332348;28;20058;-73
2021/08/29 07:59:08;;;;;;;54.87;25.23;;;;;;;15.65;100.00;94189.44;10332330;28;20379;-73
2021/08/29 08:04:09;;;;;;;50.80;23.73;;;;;;;15.71;100.00;94190.88;10329971;28;20320;-73
2021/08/29 08:09:09;;;;;;;57.43;26.77;;;;;;;15.78;100.00;94198.53;10330163;28;20290;-73
2021/08/29 08:14:10;;;;;;;48.67;25.50;;;;;;;15.77;100.00;94197.75;10331354;28;20034;-73
2021/08/29 08:19:10;;;;;;;46.73;25.07;;;;;;;15.88;100.00;94188.19;10331561;28;20288;-73
2021/08/29 08:24:10;;;;;;;47.30;24.87;;;;;;;16.00;100.00;94192.97;10331392;28;20309;-73
2021/08/29 08:29:11;;;;;;;46.77;23.77;;;;;;;15.98;100.00;94197.13;10331177;28;20277;-74
2021/08/29 08:34:11;;;;;;;55.50;25.55;;;;;;;16.16;100.00;94185.13;10331062;28;20030;-73
2021/08/29 08:39:11;;;;;;;49.70;26.40;;;;;;;16.40;100.00;94189.22;10330540;28;20092;-74
2021/08/29 08:44:12;;;;;;;57.93;24.50;;;;;;;16.66;100.00;94174.78;10330457;28;20030;-73
2021/08/29 08:49:16;;;;;;;48.65;23.25;;;;;;;16.79;100.00;94179.19;10330428;28;20402;-74
2021/08/29 08:54:18;;;;;;;38.97;23.20;;;;;;;16.91;100.00;94165.75;10329933;28;20027;-73
2021/08/29 08:59:18;;;;;;;37.97;22.90;;;;;;;16.80;100.00;94169.13;10330171;28;20026;-73
2021/08/29 09:04:18;;;;;;;43.13;24.30;;;;;;;16.87;100.00;94181.09;10329768;28;20866;-74
2021/08/29 09:09:19;;;;;;;45.53;24.40;;;;;;;17.12;100.00;94159.59;10329308;28;20058;-73
2021/08/29 09:14:19;;;;;;;39.47;22.27;;;;;;;17.08;100.00;94156.72;10329589;28;20030;-73
2021/08/29 09:19:20;;;;;;;39.00;23.13;;;;;;;17.17;100.00;94147.72;10328888;28;20405;-74
2021/08/29 09:24:20;;;;;;;57.20;23.90;;;;;;;17.27;100.00;94152.75;10328258;28;20402;-74
2021/08/29 09:29:24;;;;;;;47.37;24.40;;;;;;;17.69;100.00;94141.91;10327885;28;20273;-73
2021/08/29 09:34:24;;;;;;;39.30;22.58;;;;;;;18.09;100.00;94133.25;10328596;28;20436;-73
2021/08/29 09:39:25;;;;;;;40.53;21.17;;;;;;;18.45;100.00;94136.41;10328094;28;20080;-74
2021/08/29 09:44:32;;;;;;;41.83;21.70;;;;;;;18.79;100.00;94118.03;10328032;28;20026;-74
2021/08/29 09:49:35;;;;;;;34.57;18.63;;;;;;;19.43;100.00;94121.19;10310619;28;20030;-73
2021/08/29 09:54:43;;;;;;;31.33;19.42;;;;;;;19.96;100.00;94105.56;10310279;28;20340;-74
2021/08/29 09:59:44;;;;;;;31.27;19.05;;;;;;;20.07;100.00;94099.63;10336293;28;20034;-75
2021/08/29 10:04:45;;;;;;;32.40;19.65;;;;;;;19.54;100.00;94086.84;10326929;28;20390;-74
2021/08/29 10:09:47;;;;;;;36.75;19.67;;;;;;;19.59;100.00;94093.97;10326103;28;20057;-74
2021/08/29 10:14:48;;;;;;;37.30;19.90;;;;;;;19.38;100.00;94100.44;10326418;28;20037;-74
2021/08/29 10:19:48;;;;;;;35.13;20.13;;;;;;;19.29;100.00;94084.19;10327059;28;20030;-74
2021/08/29 10:24:50;;;;;;;31.97;19.33;;;;;;;20.02;100.00;94092.47;10326894;28;20023;-74
2021/08/29 10:29:53;;;;;;;40.78;18.77;;;;;;;19.22;100.00;94100.34;10326595;28;20659;-74
2021/08/29 10:34:54;;;;;;;36.30;20.05;;;;;;;19.04;100.00;94080.72;10326284;28;20034;-74
2021/08/29 10:39:55;;;;;;;30.40;17.88;;;;;;;19.18;100.00;94083.09;10326340;28;20019;-74
2021/08/29 10:44:55;;;;;;;33.03;18.08;;;;;;;19.16;100.00;94079.94;10326276;28;20073;-74
2021/08/29 10:49:58;;;;;;;30.40;18.17;;;;;;;19.54;100.00;94084.13;10326341;28;20097;-75
2021/08/29 10:55:10;;;;;;;35.25;19.58;;;;;;;19.88;100.00;94068.31;10325671;28;20030;-74
2021/08/29 11:00:31;;;;;;;29.40;17.08;;;;;;;20.83;100.00;94055.88;10325952;28;20132;-74
2021/08/29 11:05:31;;;;;;;25.33;14.43;;;;;;;22.65;100.00;94046.16;10324962;28;20069;-74
2021/08/29 11:10:37;;;;;;;23.58;12.73;;;;;;;25.23;100.00;94032.13;10325903;28;20045;-74
2021/08/29 11:15:38;;;;;;;24.08;12.93;;;;;;;24.63;100.00;94042.31;10325548;28;20045;-74
2021/08/29 11:20:55;;;;;;;21.33;11.88;;;;;;;24.34;100.00;94044.78;10324812;28;20390;-74
2021/08/29 11:26:39;;;;;;;17.88;11.95;;;;;;;23.47;100.00;94025.78;10324768;28;20106;-74
2021/08/29 11:31:52;;;;;;;24.83;14.10;;;;;;;22.23;100.00;94032.50;10316431;28;20046;-74
2021/08/29 11:36:53;;;;;;;25.25;14.30;;;;;;;22.19;100.00;94029.72;10325284;28;20038;-74
2021/08/29 11:42:16;;;;;;;29.80;14.73;;;;;;;22.40;100.00;94034.81;10324899;28;20118;-74
2021/08/29 11:47:17;;;;;;;24.50;13.52;;;;;;;22.49;100.00;94042.75;10332857;28;20031;-75
2021/08/29 11:52:26;;;;;;;24.63;13.60;;;;;;;22.63;100.00;94028.50;10332292;28;20030;-75
2021/08/29 11:57:27;;;;;;;25.90;13.88;;;;;;;22.41;100.00;94041.88;10331181;28;20023;-75
2021/08/29 12:02:36;;;;;;;24.77;13.80;;;;;;;22.26;100.00;94020.84;10331273;28;20026;-75
2021/08/29 12:07:39;;;;;;;22.02;13.20;;;;;;;21.97;100.00;94017.59;10332162;28;20057;-75
2021/08/29 12:12:41;;;;;;;23.60;13.88;;;;;;;21.66;100.00;94011.19;10331550;28;20030;-74
2021/08/29 12:17:43;;;;;;;23.20;13.75;;;;;;;21.64;100.00;93995.16;10331008;28;20522;-74
2021/08/29 12:22:44;;;;;;;23.02;13.20;;;;;;;21.31;100.00;94001.09;10330479;28;20037;-75
2021/08/29 12:27:46;;;;;;;22.48;13.43;;;;;;;21.51;100.00;93994.47;10329995;28;20026;-74
2021/08/29 12:32:46;;;;;;;21.33;12.77;;;;;;;21.56;100.00;93978.94;10330118;28;20478;-74
2021/08/29 12:37:47;;;;;;;28.00;13.93;;;;;;;21.22;100.00;93967.72;10330105;28;20030;-75
2021/08/29 12:42:47;;;;;;;24.90;13.73;;;;;;;21.17;100.00;93964.13;10329531;28;20134;-74
2021/08/29 12:47:48;;;;;;;21.77;12.88;;;;;;;21.18;100.00;93970.38;10329679;28;20757;-74
2021/08/29 12:52:58;;;;;;;25.23;13.38;;;;;;;21.30;100.00;93974.91;10329593;28;20053;-74
2021/08/29 12:58:04;;;;;;;24.08;13.82;;;;;;;21.61;100.00;93965.75;10329139;28;20019;-75
2021/08/29 13:03:04;;;;;;;22.65;14.43;;;;;;;21.79;100.00;93963.34;10329096;28;20537;-75
2021/08/29 13:08:06;;;;;;;24.00;13.20;;;;;;;21.90;100.00;93958.09;10329571;28;20053;-74
2021/08/29 13:13:08;;;;;;;23.13;13.77;;;;;;;21.90;100.00;93960.81;10329177;28;20026;-74
2021/08/29 13:18:09;;;;;;;23.15;12.85;;;;;;;21.97;100.00;93951.94;10329086;28;20143;-74
2021/08/29 13:23:33;;;;;;;24.08;14.50;;;;;;;21.85;100.00;93948.25;10327923;28;20069;-75
2021/08/29 13:28:34;;;;;;;25.75;14.95;;;;;;;21.88;100.00;93938.53;10329123;28;20033;-75
2021/08/29 13:33:38;;;;;;;27.67;14.10;;;;;;;21.82;100.00;93940.78;10328576;28;20499;-74
2021/08/29 13:38:38;;;;;;;24.75;13.93;;;;;;;21.72;100.00;93941.34;10328757;28;20089;-74
2021/08/29 13:43:39;;;;;;;24.67;14.88;;;;;;;21.55;100.00;93941.84;10328463;28;20105;-73
2021/08/29 13:48:40;;;;;;;21.83;13.55;;;;;;;21.62;100.00;93942.75;10328007;28;20034;-74
2021/08/29 13:53:40;;;;;;;23.58;13.60;;;;;;;21.45;100.00;93937.72;10328251;28;20089;-74
2021/08/29 13:58:40;;;;;;;19.90;12.25;;;;;;;21.42;100.00;93941.16;10328064;28;20033;-75
2021/08/29 14:03:42;;;;;;;24.03;13.73;;;;;;;21.36;100.00;93931.69;10327461;28;20386;-74
2021/08/29 14:08:42;;;;;;;23.45;14.57;;;;;;;21.40;100.00;93922.38;10327019;28;20053;-74
2021/08/29 14:13:42;;;;;;;22.07;12.20;;;;;;;21.44;100.00;93923.25;10326713;28;20034;-74
2021/08/29 14:18:43;;;;;;;26.43;14.00;;;;;;;21.52;100.00;93918.75;10326929;28;20091;-74
2021/08/29 14:23:43;;;;;;;23.53;13.67;;;;;;;21.54;100.00;93913.69;10326655;28;20029;-74
2021/08/29 14:28:43;;;;;;;22.73;13.77;;;;;;;21.61;100.00;93918.50;10326493;28;20482;-75
2021/08/29 14:33:44;;;;;;;20.60;12.50;;;;;;;21.63;100.00;93922.47;10326207;28;20490;-74
2021/08/29 14:38:44;;;;;;;21.80;12.53;;;;;;;21.67;100.00;93931.50;10326221;28;20357;-75
2021/08/29 14:43:45;;;;;;;19.17;11.83;;;;;;;21.75;100.00;93923.44;10326061;28;20280;-74
2021/08/29 14:48:45;;;;;;;19.65;11.95;;;;;;;21.83;100.00;93922.41;10325962;28;20035;-75
2021/08/29 14:53:45;;;;;;;16.50;10.40;;;;;;;21.87;100.00;93917.78;10325797;28;20397;-75
2021/08/29 14:58:46;;;;;;;23.57;13.47;;;;;;;22.00;100.00;93923.84;10325986;28;20109;-74
2021/08/29 15:03:46;;;;;;;17.27;10.77;;;;;;;21.98;100.00;93920.69;10325952;28;20788;-74
2021/08/29 15:08:46;;;;;;;16.60;9.80;;;;;;;22.06;100.00;93916.13;10325331;28;20042;-75
2021/08/29 15:13:47;;;;;;;16.90;10.60;;;;;;;22.18;100.00;93935.88;10325219;28;20027;-74
2021/08/29 15:18:47;;;;;;;19.60;10.90;;;;;;;22.23;100.00;93921.09;10329782;28;20273;-74
2021/08/29 15:23:48;;;;;;;22.77;11.40;;;;;;;22.06;100.00;93914.19;10333403;28;20471;-74
2021/08/29 15:28:49;;;;;;;17.95;10.13;;;;;;;21.89;100.00;93917.41;10333495;28;20293;-74
2021/08/29 15:33:50;;;;;;;17.30;10.53;;;;;;;21.71;100.00;93928.81;10331126;28;20034;-75
2021/08/29 15:38:50;;;;;;;16.63;9.95;;;;;;;21.73;100.00;93931.22;10331684;28;20117;-75
2021/08/29 15:43:51;;;;;;;16.23;10.20;;;;;;;21.73;100.00;93934.75;10331381;28;20173;-74
2021/08/29 15:48:51;;;;;;;16.13;10.13;;;;;;;21.73;100.00;93942.16;10330791;28;20281;-73
2021/08/29 15:53:52;;;;;;;14.52;8.60;;;;;;;21.78;100.00;93950.03;10331001;28;20057;-74
2021/08/29 15:58:57;;;;;;;18.40;9.07;;;;;;;21.81;100.00;93950.13;10331829;28;20045;-74
2021/08/29 16:03:57;;;;;;;13.77;8.93;;;;;;;21.82;100.00;93950.91;10331936;28;20034;-74
2021/08/29 16:08:57;;;;;;;17.80;10.27;;;;;;;21.87;100.00;93953.34;10331436;28;20054;-74
2021/08/29 16:13:58;;;;;;;10.23;7.37;;;;;;;21.83;100.00;93966.94;10337133;28;20051;-73
2021/08/29 16:18:58;;;;;;;14.10;6.50;;;;;;;21.54;100.00;93979.31;10330868;28;20285;-73
2021/08/29 16:23:58;;;;;;;14.77;6.37;;;;;;;21.27;100.00;93981.09;10365929;28;20477;-73
2021/08/29 16:28:59;;;;;;;10.47;6.87;;;;;;;20.82;100.00;93994.22;10362513;28;20137;-72
2021/08/29 16:33:59;;;;;;;8.88;6.47;;;;;;;20.37;100.00;93982.63;10331335;28;20038;-72
2021/08/29 16:39:00;;;;;;;13.33;7.30;;;;;;;19.75;100.00;94002.13;10332215;28;20053;-73
2021/08/29 16:44:01;;;;;;;17.98;8.15;;;;;;;18.73;100.00;94022.22;10327621;28;20023;-72
2021/08/29 16:49:02;;;;;;;14.13;8.00;;;;;;;18.32;100.00;94020.53;10291171;28;20470;-73
2021/08/29 16:54:02;;;;;;;11.23;7.10;;;;;;;18.37;100.00;94029.25;10291496;28;20302;-72
2021/08/29 16:59:03;;;;;;;12.93;7.20;;;;;;;18.50;100.00;94031.97;10290564;28;20388;-73
2021/08/29 17:04:04;;;;;;;12.63;5.83;;;;;;;17.44;100.00;94029.59;10290718;28;20027;-73
2021/08/29 17:09:04;;;;;;;9.52;5.32;;;;;;;16.85;100.00;94096.47;10328540;28;20348;-72
2021/08/29 17:14:06;;;;;;;10.17;5.70;;;;;;;16.48;100.00;94103.50;10325786;28;20038;-72
2021/08/29 17:19:07;;;;;;;13.88;6.93;;;;;;;16.37;100.00;94105.81;10290141;28;20369;-72
2021/08/29 17:24:09;;;;;;;14.45;7.72;;;;;;;15.99;100.00;94129.03;10289936;28;20125;-72
2021/08/29 17:29:09;;;;;;;13.00;7.70;;;;;;;15.73;100.00;94139.88;10289465;28;20113;-72
2021/08/29 17:34:09;;;;;;;18.30;9.80;;;;;;;15.65;100.00;94154.22;10289244;28;20057;-72
2021/08/29 17:39:10;;;;;;;19.13;10.03;;;;;;;15.62;100.00;94188.16;10288951;28;20270;-72
2021/08/29 17:44:10;;;;;;;22.17;11.90;;;;;;;15.55;100.00;94210.31;10287847;28;20764;-72
2021/08/29 17:49:13;;;;;;;24.87;13.73;;;;;;;15.60;100.00;94219.41;10288428;28;20042;-73
2021/08/29 17:54:14;;;;;;;28.60;14.02;;;;;;;15.58;100.00;94225.13;10287837;28;20035;-73
2021/08/29 17:59:14;;;;;;;25.63;13.10;;;;;;;15.61;100.00;94235.31;10288503;28;20030;-73
2021/08/29 18:04:14;;;;;;;25.77;13.73;;;;;;;15.69;100.00;94236.47;10287970;28;20620;-73
2021/08/29 18:09:15;;;;;;;37.58;20.13;;;;;;;15.86;100.00;94262.78;10325320;28;20301;-72
2021/08/29 18:14:15;;;;;;;22.97;13.57;;;;;;;15.76;100.00;94255.75;10328304;28;20126;-75
2021/08/29 18:19:16;;;;;;;27.23;14.20;;;;;;;15.78;100.00;94282.53;10351494;28;20367;-76
2021/08/29 18:24:16;;;;;;;30.03;15.50;;;;;;;15.80;100.00;94275.69;10369504;28;20026;-75
2021/08/29 18:29:17;;;;;;;23.33;12.97;;;;;;;15.75;100.00;94278.53;10370080;28;20022;-75
2021/08/29 18:34:18;;;;;;;23.13;12.68;;;;;;;15.53;100.00;94282.97;10368594;28;20293;-75
2021/08/29 18:39:18;;;;;;;25.90;14.60;;;;;;;15.37;100.00;94273.69;10369247;28;20025;-76
2021/08/29 18:44:20;;;;;;;26.30;14.88;;;;;;;15.18;100.00;94280.16;10351500;28;20519;-75
2021/08/29 18:49:23;;;;;;;23.15;12.35;;;;;;;15.19;100.00;94280.94;10368565;28;20029;-76
2021/08/29 18:54:26;;;;;;;22.80;13.73;;;;;;;15.36;100.00;94286.44;10366744;28;20030;-76
2021/08/29 18:59:26;;;;;;;24.02;13.50;;;;;;;15.41;100.00;94296.31;10335848;28;20391;-75
2021/08/29 19:04:27;;;;;;;24.70;11.85;;;;;;;15.36;100.00;94291.84;10285953;28;20018;-74
2021/08/29 19:09:27;;;;;;;26.48;12.93;;;;;;;15.20;100.00;94296.88;10326123;28;20050;-74
2021/08/29 19:14:28;;;;;;;23.15;13.35;;;;;;;15.25;100.00;94311.38;10324913;28;20065;-74
2021/08/29 19:19:28;;;;;;;28.92;13.88;;;;;;;15.43;100.00;94313.03;10286057;28;20031;-74
2021/08/29 19:24:29;;;;;;;30.83;13.67;;;;;;;15.60;100.00;94311.50;10285391;28;20097;-75
2021/08/29 19:29:29;;;;;;;22.17;12.80;;;;;;;15.70;100.00;94317.41;10285479;28;20285;-74
2021/08/29 19:34:29;;;;;;;21.57;12.70;;;;;;;15.75;100.00;94321.88;10285485;28;20023;-74
2021/08/29 19:39:30;;;;;;;21.50;12.35;;;;;;;15.75;100.00;94327.28;10285774;28;20689;-75
2021/08/29 19:44:30;;;;;;;21.08;10.95;;;;;;;15.70;100.00;94308.50;10285867;28;20504;-75
2021/08/29 19:49:31;;;;;;;21.03;11.87;;;;;;;15.72;100.00;94307.03;10285332;28;20107;-74
2021/08/29 19:54:31;;;;;;;18.17;10.13;;;;;;;15.71;100.00;94301.94;10285084;28;20304;-74
2021/08/29 19:59:31;;;;;;;17.67;10.10;;;;;;;15.60;100.00;94303.38;10285723;28;20035;-74
2021/08/29 20:04:32;;;;;;;20.37;10.57;;;;;;;15.54;100.00;94308.13;10288830;28;20274;-74
2021/08/29 20:09:32;;;;;;;15.63;9.95;;;;;;;15.58;100.00;94300.19;10332950;28;20056;-74
2021/08/29 20:14:33;;;;;;;16.58;9.75;;;;;;;15.63;100.00;94292.72;10332622;28;20125;-74
2021/08/29 20:19:33;;;;;;;16.87;10.43;;;;;;;15.64;100.00;94293.50;10332436;28;20033;-74
2021/08/29 20:24:34;;;;;;;21.63;10.07;;;;;;;15.67;100.00;94287.44;10332377;28;20034;-75
2021/08/29 20:29:34;;;;;;;18.13;10.45;;;;;;;15.74;100.00;94312.19;10332236;28;20101;-74
2021/08/29 20:34:35;;;;;;;13.30;9.50;;;;;;;15.67;100.00;94296.38;10331914;28;20032;-74
2021/08/29 20:39:35;;;;;;;14.93;9.25;;;;;;;15.60;100.00;94295.22;10331657;28;20285;-74
2021/08/29 20:44:36;;;;;;;18.10;10.20;;;;;;;15.49;100.00;94292.84;10331946;28;20406;-75
2021/08/29 20:49:36;;;;;;;19.20;9.63;;;;;;;15.50;100.00;94289.03;10330363;28;20644;-76
2021/08/29 20:54:36;;;;;;;17.07;10.97;;;;;;;15.31;100.00;94285.78;10330014;28;20053;-76
2021/08/29 20:59:37;;;;;;;16.23;10.47;;;;;;;15.20;100.00;94291.47;10329770;28;20277;-76
2021/08/29 21:04:37;;;;;;;17.87;10.27;;;;;;;15.07;100.00;94297.81;10329865;28;20026;-74
2021/08/29 21:09:40;;;;;;;16.95;10.45;;;;;;;15.02;100.00;94293.31;10328406;28;20050;-75
2021/08/29 21:14:40;;;;;;;20.73;10.85;;;;;;;14.98;100.00;94305.06;10328253;28;20049;-74
2021/08/29 21:19:42;;;;;;;19.13;12.43;;;;;;;14.94;100.00;94304.09;10329591;28;20134;-75
2021/08/29 21:24:42;;;;;;;21.75;11.63;;;;;;;14.90;100.00;94303.13;10327704;28;20528;-75
2021/08/29 21:29:43;;;;;;;20.20;12.32;;;;;;;14.81;100.00;94293.06;10328141;28;20073;-74
2021/08/29 21:34:43;;;;;;;19.80;11.30;;;;;;;14.66;100.00;94298.84;10327775;28;20284;-74
2021/08/29 21:39:43;;;;;;;19.27;11.33;;;;;;;14.62;100.00;94314.06;10328050;28;20034;-74
2021/08/29 21:44:44;;;;;;;19.93;11.53;;;;;;;14.58;100.00;94318.50;10328944;28;20757;-74
2021/08/29 21:49:45;;;;;;;24.37;12.17;;;;;;;14.38;100.00;94317.91;10329052;28;20266;-75
2021/08/29 21:54:45;;;;;;;20.40;12.45;;;;;;;14.36;100.00;94330.94;10328459;28;20041;-74
2021/08/29 21:59:45;;;;;;;19.73;12.35;;;;;;;14.35;100.00;94329.31;10328005;28;20708;-75
2021/08/29 22:04:47;;;;;;;21.52;13.27;;;;;;;14.30;100.00;94329.44;10327946;28;20117;-75
2021/08/29 22:09:47;;;;;;;22.60;13.38;;;;;;;14.36;100.00;94336.34;10327383;28;20046;-74
2021/08/29 22:14:48;;;;;;;20.57;11.63;;;;;;;14.28;100.00;94340.56;10327747;28;20030;-74
2021/08/29 22:19:49;;;;;;;27.30;13.53;;;;;;;14.16;100.00;94345.69;10327659;28;20126;-75
2021/08/29 22:24:49;;;;;;;19.40;12.55;;;;;;;14.13;100.00;94359.84;10327155;28;20282;-73
2021/08/29 22:29:49;;;;;;;22.67;12.50;;;;;;;13.98;100.00;94355.56;10326692;28;20363;-74
2021/08/29 22:34:50;;;;;;;23.10;13.68;;;;;;;14.02;100.00;94351.16;10327140;28;20393;-75